sensor_id;sensor_type;location;lat;lon;timestamp;temperature;humidity
4518;DHT22;2271;49.464;11.070;2023-02-28T00:00:46;1.10;99.90
4518;DHT22;2271;49.464;11.070;2023-02-28T00:03:12;1.10;99.90
4518;DHT22;2271;49.464;11.070;2023-02-28T00:05:37;1.20;99.90
4518;DHT22;2271;49.464;11.070;2023-02-28T00:08:03;1.20;99.90
4518;DHT22;2271;49.464;11.070;2023-02-28T00:10:30;1.20;99.90
4518;DHT22;2271;49.464;11.070;2023-02-28T00:13:00;1.10;99.90
4518;DHT22;2271;49.464;11.070;2023-02-28T00:15:26;1.10;99.90
4518;DHT22;2271;49.464;11.070;2023-02-28T00:17:52;1.10;99.90
4518;DHT22;2271;49.464;11.070;2023-02-28T00:20:18;1.20;99.90
4518;DHT22;2271;49.464;11.070;2023-02-28T00:22:46;1.20;99.90
4518;DHT22;2271;49.464;11.070;2023-02-28T00:25:15;1.10;99.90
4518;DHT22;2271;49.464;11.070;2023-02-28T00:27:42;1.00;99.90
4518;DHT22;2271;49.464;11.070;2023-02-28T00:30:11;1.00;99.90
4518;DHT22;2271;49.464;11.070;2023-02-28T00:32:37;1.10;99.90
4518;DHT22;2271;49.464;11.070;2023-02-28T00:35:03;1.10;99.90
4518;DHT22;2271;49.464;11.070;2023-02-28T00:37:29;1.10;99.90
4518;DHT22;2271;49.464;11.070;2023-02-28T00:39:54;1.10;99.90
4518;DHT22;2271;49.464;11.070;2023-02-28T00:42:20;1.00;99.90
4518;DHT22;2271;49.464;11.070;2023-02-28T00:44:46;1.00;99.90
4518;DHT22;2271;49.464;11.070;2023-02-28T00:47:11;0.90;99.90
4518;DHT22;2271;49.464;11.070;2023-02-28T00:49:37;1.00;99.90
4518;DHT22;2271;49.464;11.070;2023-02-28T00:52:03;0.90;99.90
4518;DHT22;2271;49.464;11.070;2023-02-28T00:54:29;0.90;99.90
4518;DHT22;2271;49.464;11.070;2023-02-28T00:56:54;0.80;99.90
4518;DHT22;2271;49.464;11.070;2023-02-28T00:59:20;0.90;99.90
4518;DHT22;2271;49.464;11.070;2023-02-28T01:01:47;1.00;99.90
4518;DHT22;2271;49.464;11.070;2023-02-28T01:04:13;1.10;99.90
4518;DHT22;2271;49.464;11.070;2023-02-28T01:06:39;1.00;99.90
4518;DHT22;2271;49.464;11.070;2023-02-28T01:09:06;0.80;99.90
4518;DHT22;2271;49.464;11.070;2023-02-28T01:11:33;0.70;99.90
4518;DHT22;2271;49.464;11.070;2023-02-28T01:13:58;0.80;99.90
4518;DHT22;2271;49.464;11.070;2023-02-28T01:16:25;0.80;99.90
4518;DHT22;2271;49.464;11.070;2023-02-28T01:18:50;0.80;99.90
4518;DHT22;2271;49.464;11.070;2023-02-28T01:21:18;0.70;99.90
4518;DHT22;2271;49.464;11.070;2023-02-28T01:23:45;0.80;99.90
4518;DHT22;2271;49.464;11.070;2023-02-28T01:26:18;0.80;99.90
4518;DHT22;2271;49.464;11.070;2023-02-28T01:28:44;0.70;99.90
4518;DHT22;2271;49.464;11.070;2023-02-28T01:31:10;0.70;99.90
4518;DHT22;2271;49.464;11.070;2023-02-28T01:33:36;0.80;99.90
4518;DHT22;2271;49.464;11.070;2023-02-28T01:36:05;0.70;99.90
4518;DHT22;2271;49.464;11.070;2023-02-28T01:38:31;0.70;99.90
4518;DHT22;2271;49.464;11.070;2023-02-28T01:40:57;0.60;99.90
4518;DHT22;2271;49.464;11.070;2023-02-28T01:43:26;0.60;99.90
4518;DHT22;2271;49.464;11.070;2023-02-28T01:45:53;0.60;99.90
4518;DHT22;2271;49.464;11.070;2023-02-28T01:48:23;0.70;99.90
4518;DHT22;2271;49.464;11.070;2023-02-28T01:50:49;0.60;99.90
4518;DHT22;2271;49.464;11.070;2023-02-28T01:53:19;0.50;99.90
4518;DHT22;2271;49.464;11.070;2023-02-28T01:55:49;0.50;99.90
4518;DHT22;2271;49.464;11.070;2023-02-28T01:58:17;0.60;99.90
4518;DHT22;2271;49.464;11.070;2023-02-28T02:00:43;0.60;99.90
4518;DHT22;2271;49.464;11.070;2023-02-28T02:03:12;0.60;99.90
4518;DHT22;2271;49.464;11.070;2023-02-28T02:05:39;0.40;99.90
4518;DHT22;2271;49.464;11.070;2023-02-28T02:08:09;0.40;99.90
4518;DHT22;2271;49.464;11.070;2023-02-28T02:11:07;0.60;99.90
4518;DHT22;2271;49.464;11.070;2023-02-28T02:17:25;0.50;99.90
4518;DHT22;2271;49.464;11.070;2023-02-28T02:22:46;0.50;99.90
4518;DHT22;2271;49.464;11.070;2023-02-28T02:25:54;0.30;99.90
4518;DHT22;2271;49.464;11.070;2023-02-28T02:37:04;0.60;99.90
4518;DHT22;2271;49.464;11.070;2023-02-28T02:40:22;0.60;99.90
4518;DHT22;2271;49.464;11.070;2023-02-28T02:45:16;0.60;99.90
4518;DHT22;2271;49.464;11.070;2023-02-28T02:47:43;0.70;99.90
4518;DHT22;2271;49.464;11.070;2023-02-28T02:50:15;0.70;99.90
4518;DHT22;2271;49.464;11.070;2023-02-28T02:52:48;0.60;99.90
4518;DHT22;2271;49.464;11.070;2023-02-28T02:55:16;0.60;99.90
4518;DHT22;2271;49.464;11.070;2023-02-28T02:57:50;0.60;99.90
4518;DHT22;2271;49.464;11.070;2023-02-28T03:00:18;0.60;99.90
4518;DHT22;2271;49.464;11.070;2023-02-28T03:02:46;0.60;99.90
4518;DHT22;2271;49.464;11.070;2023-02-28T03:05:41;0.50;99.90
4518;DHT22;2271;49.464;11.070;2023-02-28T03:08:09;0.50;99.90
4518;DHT22;2271;49.464;11.070;2023-02-28T03:13:22;0.30;99.90
4518;DHT22;2271;49.464;11.070;2023-02-28T03:26:23;0.30;99.90
4518;DHT22;2271;49.464;11.070;2023-02-28T03:31:39;0.30;99.90
4518;DHT22;2271;49.464;11.070;2023-02-28T03:34:23;0.10;99.90
4518;DHT22;2271;49.464;11.070;2023-02-28T03:36:53;0.10;99.90
4518;DHT22;2271;49.464;11.070;2023-02-28T03:39:27;0.10;99.90
4518;DHT22;2271;49.464;11.070;2023-02-28T03:44:43;0.00;99.90
4518;DHT22;2271;49.464;11.070;2023-02-28T03:47:37;0.20;99.90
4518;DHT22;2271;49.464;11.070;2023-02-28T03:50:37;0.10;99.90
4518;DHT22;2271;49.464;11.070;2023-02-28T03:53:29;0.20;99.90
4518;DHT22;2271;49.464;11.070;2023-02-28T03:56:01;0.30;99.90
4518;DHT22;2271;49.464;11.070;2023-02-28T03:58:39;0.30;99.90
4518;DHT22;2271;49.464;11.070;2023-02-28T04:01:14;0.30;99.90
4518;DHT22;2271;49.464;11.070;2023-02-28T04:03:41;0.20;99.90
4518;DHT22;2271;49.464;11.070;2023-02-28T04:06:12;0.30;99.90
4518;DHT22;2271;49.464;11.070;2023-02-28T04:08:39;0.20;99.90
4518;DHT22;2271;49.464;11.070;2023-02-28T04:11:18;0.30;99.90
4518;DHT22;2271;49.464;11.070;2023-02-28T04:13:45;0.40;99.90
4518;DHT22;2271;49.464;11.070;2023-02-28T04:16:10;0.60;99.90
4518;DHT22;2271;49.464;11.070;2023-02-28T04:18:39;0.60;99.90
4518;DHT22;2271;49.464;11.070;2023-02-28T04:21:06;0.50;99.90
4518;DHT22;2271;49.464;11.070;2023-02-28T04:23:32;0.50;99.90
4518;DHT22;2271;49.464;11.070;2023-02-28T04:25:58;0.40;99.90
4518;DHT22;2271;49.464;11.070;2023-02-28T04:28:23;0.50;99.90
4518;DHT22;2271;49.464;11.070;2023-02-28T04:31:00;0.50;99.90
4518;DHT22;2271;49.464;11.070;2023-02-28T04:33:26;0.50;99.90
4518;DHT22;2271;49.464;11.070;2023-02-28T04:36:02;0.50;99.90
4518;DHT22;2271;49.464;11.070;2023-02-28T04:38:32;0.50;99.90
4518;DHT22;2271;49.464;11.070;2023-02-28T04:40:59;0.50;99.90
4518;DHT22;2271;49.464;11.070;2023-02-28T04:43:26;0.60;99.90
4518;DHT22;2271;49.464;11.070;2023-02-28T04:45:52;0.60;99.90
4518;DHT22;2271;49.464;11.070;2023-02-28T04:48:18;0.60;99.90
4518;DHT22;2271;49.464;11.070;2023-02-28T04:50:43;0.70;99.90
4518;DHT22;2271;49.464;11.070;2023-02-28T04:53:09;0.70;99.90
4518;DHT22;2271;49.464;11.070;2023-02-28T04:55:34;0.60;99.90
4518;DHT22;2271;49.464;11.070;2023-02-28T04:58:00;0.70;99.90
4518;DHT22;2271;49.464;11.070;2023-02-28T05:00:26;0.50;99.90
4518;DHT22;2271;49.464;11.070;2023-02-28T05:02:51;0.40;99.90
4518;DHT22;2271;49.464;11.070;2023-02-28T05:05:17;0.30;99.90
4518;DHT22;2271;49.464;11.070;2023-02-28T05:07:44;0.30;99.90
4518;DHT22;2271;49.464;11.070;2023-02-28T05:10:10;0.40;99.90
4518;DHT22;2271;49.464;11.070;2023-02-28T05:12:36;0.40;99.90
4518;DHT22;2271;49.464;11.070;2023-02-28T05:15:03;0.40;99.90
4518;DHT22;2271;49.464;11.070;2023-02-28T05:17:30;0.40;99.90
4518;DHT22;2271;49.464;11.070;2023-02-28T05:19:55;0.40;99.90
4518;DHT22;2271;49.464;11.070;2023-02-28T05:22:21;0.40;99.90
4518;DHT22;2271;49.464;11.070;2023-02-28T05:24:47;0.40;99.90
4518;DHT22;2271;49.464;11.070;2023-02-28T05:27:12;0.50;99.90
4518;DHT22;2271;49.464;11.070;2023-02-28T05:29:38;0.50;99.90
4518;DHT22;2271;49.464;11.070;2023-02-28T05:32:11;0.40;99.90
4518;DHT22;2271;49.464;11.070;2023-02-28T05:34:41;0.40;99.90
4518;DHT22;2271;49.464;11.070;2023-02-28T05:37:12;0.40;99.90
4518;DHT22;2271;49.464;11.070;2023-02-28T05:39:38;0.50;99.90
4518;DHT22;2271;49.464;11.070;2023-02-28T05:42:04;0.60;99.90
4518;DHT22;2271;49.464;11.070;2023-02-28T05:44:30;0.40;99.90
4518;DHT22;2271;49.464;11.070;2023-02-28T05:46:55;0.50;99.90
4518;DHT22;2271;49.464;11.070;2023-02-28T05:49:21;0.50;99.90
4518;DHT22;2271;49.464;11.070;2023-02-28T05:51:47;0.50;99.90
4518;DHT22;2271;49.464;11.070;2023-02-28T05:54:13;0.60;99.90
4518;DHT22;2271;49.464;11.070;2023-02-28T05:56:39;0.60;99.90
4518;DHT22;2271;49.464;11.070;2023-02-28T05:59:06;0.60;99.90
4518;DHT22;2271;49.464;11.070;2023-02-28T06:01:42;0.60;99.90
4518;DHT22;2271;49.464;11.070;2023-02-28T06:04:15;0.60;99.90
4518;DHT22;2271;49.464;11.070;2023-02-28T06:06:44;0.50;99.90
4518;DHT22;2271;49.464;11.070;2023-02-28T06:09:10;0.50;99.90
4518;DHT22;2271;49.464;11.070;2023-02-28T06:11:36;0.40;99.90
4518;DHT22;2271;49.464;11.070;2023-02-28T06:14:03;0.30;99.90
4518;DHT22;2271;49.464;11.070;2023-02-28T06:16:30;0.10;99.90
4518;DHT22;2271;49.464;11.070;2023-02-28T06:19:01;0.10;99.90
4518;DHT22;2271;49.464;11.070;2023-02-28T06:21:28;0.10;99.90
4518;DHT22;2271;49.464;11.070;2023-02-28T06:23:54;0.30;99.90
4518;DHT22;2271;49.464;11.070;2023-02-28T06:26:20;0.30;99.90
4518;DHT22;2271;49.464;11.070;2023-02-28T06:28:46;0.50;99.90
4518;DHT22;2271;49.464;11.070;2023-02-28T06:31:14;0.50;99.90
4518;DHT22;2271;49.464;11.070;2023-02-28T06:33:40;0.60;99.90
4518;DHT22;2271;49.464;11.070;2023-02-28T06:36:08;0.60;99.90
4518;DHT22;2271;49.464;11.070;2023-02-28T06:38:34;0.80;99.90
4518;DHT22;2271;49.464;11.070;2023-02-28T06:41:01;2.90;99.90
4518;DHT22;2271;49.464;11.070;2023-02-28T06:43:32;5.40;99.90
4518;DHT22;2271;49.464;11.070;2023-02-28T06:46:00;7.20;99.90
4518;DHT22;2271;49.464;11.070;2023-02-28T06:48:27;5.90;99.90
4518;DHT22;2271;49.464;11.070;2023-02-28T06:51:04;4.00;99.90
4518;DHT22;2271;49.464;11.070;2023-02-28T06:53:30;2.90;99.90
4518;DHT22;2271;49.464;11.070;2023-02-28T06:55:56;2.50;99.90
4518;DHT22;2271;49.464;11.070;2023-02-28T06:58:21;2.00;99.90
4518;DHT22;2271;49.464;11.070;2023-02-28T07:00:51;1.70;99.90
4518;DHT22;2271;49.464;11.070;2023-02-28T07:03:17;1.60;99.90
4518;DHT22;2271;49.464;11.070;2023-02-28T07:05:44;1.50;99.90
4518;DHT22;2271;49.464;11.070;2023-02-28T07:08:10;1.30;99.90
4518;DHT22;2271;49.464;11.070;2023-02-28T07:10:40;1.20;99.90
4518;DHT22;2271;49.464;11.070;2023-02-28T07:13:06;0.90;99.90
4518;DHT22;2271;49.464;11.070;2023-02-28T07:15:32;1.00;99.90
4518;DHT22;2271;49.464;11.070;2023-02-28T07:17:58;1.10;99.90
4518;DHT22;2271;49.464;11.070;2023-02-28T07:20:24;1.10;99.90
4518;DHT22;2271;49.464;11.070;2023-02-28T07:22:50;1.10;99.90
4518;DHT22;2271;49.464;11.070;2023-02-28T07:25:25;1.00;99.90
4518;DHT22;2271;49.464;11.070;2023-02-28T07:27:51;0.90;99.90
4518;DHT22;2271;49.464;11.070;2023-02-28T07:30:18;0.80;99.90
4518;DHT22;2271;49.464;11.070;2023-02-28T07:32:43;0.70;99.90
4518;DHT22;2271;49.464;11.070;2023-02-28T07:35:09;0.60;99.90
4518;DHT22;2271;49.464;11.070;2023-02-28T07:37:35;0.60;99.90
4518;DHT22;2271;49.464;11.070;2023-02-28T07:40:06;0.80;99.90
4518;DHT22;2271;49.464;11.070;2023-02-28T07:42:36;1.00;99.90
4518;DHT22;2271;49.464;11.070;2023-02-28T07:45:02;1.20;99.90
4518;DHT22;2271;49.464;11.070;2023-02-28T07:47:31;1.30;99.90
4518;DHT22;2271;49.464;11.070;2023-02-28T07:49:57;1.00;99.90
4518;DHT22;2271;49.464;11.070;2023-02-28T07:52:23;1.00;99.90
4518;DHT22;2271;49.464;11.070;2023-02-28T07:54:50;1.00;99.90
4518;DHT22;2271;49.464;11.070;2023-02-28T07:57:16;1.00;99.90
4518;DHT22;2271;49.464;11.070;2023-02-28T07:59:41;1.10;99.90
4518;DHT22;2271;49.464;11.070;2023-02-28T08:02:14;1.10;99.90
4518;DHT22;2271;49.464;11.070;2023-02-28T08:04:40;1.20;99.90
4518;DHT22;2271;49.464;11.070;2023-02-28T08:07:06;1.10;99.90
4518;DHT22;2271;49.464;11.070;2023-02-28T08:09:32;1.10;99.90
4518;DHT22;2271;49.464;11.070;2023-02-28T08:11:59;1.10;99.90
4518;DHT22;2271;49.464;11.070;2023-02-28T08:14:25;1.10;99.90
4518;DHT22;2271;49.464;11.070;2023-02-28T08:16:50;1.30;99.90
4518;DHT22;2271;49.464;11.070;2023-02-28T08:19:16;1.40;99.90
4518;DHT22;2271;49.464;11.070;2023-02-28T08:21:42;1.30;99.90
4518;DHT22;2271;49.464;11.070;2023-02-28T08:24:07;1.10;99.90
4518;DHT22;2271;49.464;11.070;2023-02-28T08:26:33;1.10;99.90
4518;DHT22;2271;49.464;11.070;2023-02-28T08:28:59;1.20;99.90
4518;DHT22;2271;49.464;11.070;2023-02-28T08:31:24;1.30;99.90
4518;DHT22;2271;49.464;11.070;2023-02-28T08:33:50;1.50;99.90
4518;DHT22;2271;49.464;11.070;2023-02-28T08:36:18;1.60;99.90
4518;DHT22;2271;49.464;11.070;2023-02-28T08:38:44;1.60;99.90
4518;DHT22;2271;49.464;11.070;2023-02-28T08:41:12;1.60;99.90
4518;DHT22;2271;49.464;11.070;2023-02-28T08:43:39;1.60;99.90
4518;DHT22;2271;49.464;11.070;2023-02-28T08:46:06;1.60;99.90
4518;DHT22;2271;49.464;11.070;2023-02-28T08:48:33;1.60;99.90
4518;DHT22;2271;49.464;11.070;2023-02-28T08:51:05;1.70;99.90
4518;DHT22;2271;49.464;11.070;2023-02-28T08:53:31;1.60;99.90
4518;DHT22;2271;49.464;11.070;2023-02-28T08:56:02;1.60;99.90
4518;DHT22;2271;49.464;11.070;2023-02-28T08:58:28;1.80;99.90
4518;DHT22;2271;49.464;11.070;2023-02-28T09:00:54;1.80;99.90
4518;DHT22;2271;49.464;11.070;2023-02-28T09:03:21;1.90;99.90
4518;DHT22;2271;49.464;11.070;2023-02-28T09:06:00;1.90;99.90
4518;DHT22;2271;49.464;11.070;2023-02-28T09:08:28;1.80;99.90
4518;DHT22;2271;49.464;11.070;2023-02-28T09:10:55;1.80;99.90
4518;DHT22;2271;49.464;11.070;2023-02-28T09:13:23;1.70;99.90
4518;DHT22;2271;49.464;11.070;2023-02-28T09:15:49;1.80;99.90
4518;DHT22;2271;49.464;11.070;2023-02-28T09:18:15;1.70;99.90
4518;DHT22;2271;49.464;11.070;2023-02-28T09:20:42;1.70;99.90
4518;DHT22;2271;49.464;11.070;2023-02-28T09:23:09;1.70;99.90
4518;DHT22;2271;49.464;11.070;2023-02-28T09:25:36;1.80;99.90
4518;DHT22;2271;49.464;11.070;2023-02-28T09:28:02;1.90;99.90
4518;DHT22;2271;49.464;11.070;2023-02-28T09:30:28;2.10;99.90
4518;DHT22;2271;49.464;11.070;2023-02-28T09:32:54;2.10;99.90
4518;DHT22;2271;49.464;11.070;2023-02-28T09:35:21;2.20;99.90
4518;DHT22;2271;49.464;11.070;2023-02-28T09:37:49;2.60;99.90
4518;DHT22;2271;49.464;11.070;2023-02-28T09:40:15;3.40;99.90
4518;DHT22;2271;49.464;11.070;2023-02-28T09:42:46;3.40;99.90
4518;DHT22;2271;49.464;11.070;2023-02-28T09:45:36;3.20;99.90
4518;DHT22;2271;49.464;11.070;2023-02-28T09:48:09;2.90;99.90
4518;DHT22;2271;49.464;11.070;2023-02-28T09:50:43;2.70;99.90
4518;DHT22;2271;49.464;11.070;2023-02-28T09:53:26;2.70;99.90
4518;DHT22;2271;49.464;11.070;2023-02-28T09:55:55;2.70;99.90
4518;DHT22;2271;49.464;11.070;2023-02-28T09:58:27;2.60;99.90
4518;DHT22;2271;49.464;11.070;2023-02-28T10:01:10;2.50;99.90
4518;DHT22;2271;49.464;11.070;2023-02-28T10:03:42;2.80;99.90
4518;DHT22;2271;49.464;11.070;2023-02-28T10:06:18;3.00;99.90
4518;DHT22;2271;49.464;11.070;2023-02-28T10:11:29;3.60;99.90
4518;DHT22;2271;49.464;11.070;2023-02-28T10:14:21;3.90;99.90
4518;DHT22;2271;49.464;11.070;2023-02-28T10:17:17;4.00;99.90
4518;DHT22;2271;49.464;11.070;2023-02-28T10:22:20;4.10;99.90
4518;DHT22;2271;49.464;11.070;2023-02-28T10:24:52;4.30;99.90
4518;DHT22;2271;49.464;11.070;2023-02-28T10:27:21;4.30;99.90
4518;DHT22;2271;49.464;11.070;2023-02-28T10:29:49;4.50;99.90
4518;DHT22;2271;49.464;11.070;2023-02-28T10:32:18;4.70;99.90
4518;DHT22;2271;49.464;11.070;2023-02-28T10:34:44;4.80;99.90
4518;DHT22;2271;49.464;11.070;2023-02-28T10:37:11;4.90;99.90
4518;DHT22;2271;49.464;11.070;2023-02-28T10:39:41;5.00;99.90
4518;DHT22;2271;49.464;11.070;2023-02-28T10:44:44;5.20;99.90
4518;DHT22;2271;49.464;11.070;2023-02-28T10:47:17;5.40;99.90
4518;DHT22;2271;49.464;11.070;2023-02-28T10:49:49;5.30;99.90
4518;DHT22;2271;49.464;11.070;2023-02-28T10:52:36;5.10;99.90
4518;DHT22;2271;49.464;11.070;2023-02-28T10:55:23;5.20;99.90
4518;DHT22;2271;49.464;11.070;2023-02-28T10:57:51;5.20;99.90
4518;DHT22;2271;49.464;11.070;2023-02-28T11:00:22;5.10;99.90
4518;DHT22;2271;49.464;11.070;2023-02-28T11:02:48;5.30;99.90
4518;DHT22;2271;49.464;11.070;2023-02-28T11:05:31;5.80;99.90
4518;DHT22;2271;49.464;11.070;2023-02-28T11:08:14;5.90;99.90
4518;DHT22;2271;49.464;11.070;2023-02-28T11:10:48;5.90;99.90
4518;DHT22;2271;49.464;11.070;2023-02-28T11:13:21;6.00;99.90
4518;DHT22;2271;49.464;11.070;2023-02-28T11:15:58;6.30;99.90
4518;DHT22;2271;49.464;11.070;2023-02-28T11:21:11;6.50;99.90
4518;DHT22;2271;49.464;11.070;2023-02-28T11:23:42;6.40;99.90
4518;DHT22;2271;49.464;11.070;2023-02-28T11:26:08;6.40;99.90
4518;DHT22;2271;49.464;11.070;2023-02-28T11:28:39;6.50;99.90
4518;DHT22;2271;49.464;11.070;2023-02-28T11:36:17;6.30;99.90
4518;DHT22;2271;49.464;11.070;2023-02-28T11:38:43;6.30;99.90
4518;DHT22;2271;49.464;11.070;2023-02-28T11:44:21;6.40;99.90
4518;DHT22;2271;49.464;11.070;2023-02-28T11:46:51;6.50;99.90
4518;DHT22;2271;49.464;11.070;2023-02-28T11:54:47;6.70;99.90
4518;DHT22;2271;49.464;11.070;2023-02-28T12:03:04;7.00;99.90
4518;DHT22;2271;49.464;11.070;2023-02-28T12:05:49;6.80;99.90
4518;DHT22;2271;49.464;11.070;2023-02-28T12:27:30;6.50;99.90
4518;DHT22;2271;49.464;11.070;2023-02-28T12:30:17;6.60;99.90
4518;DHT22;2271;49.464;11.070;2023-02-28T12:33:08;6.40;99.90
4518;DHT22;2271;49.464;11.070;2023-02-28T12:35:41;6.60;99.90
4518;DHT22;2271;49.464;11.070;2023-02-28T12:38:28;6.40;99.90
4518;DHT22;2271;49.464;11.070;2023-02-28T12:40:56;6.70;99.90
4518;DHT22;2271;49.464;11.070;2023-02-28T12:43:30;6.80;99.90
4518;DHT22;2271;49.464;11.070;2023-02-28T12:46:06;7.00;99.90
4518;DHT22;2271;49.464;11.070;2023-02-28T12:51:00;7.40;99.90
4518;DHT22;2271;49.464;11.070;2023-02-28T12:58:48;7.20;99.90
4518;DHT22;2271;49.464;11.070;2023-02-28T13:09:34;7.10;99.90
4518;DHT22;2271;49.464;11.070;2023-02-28T13:12:00;7.10;99.90
4518;DHT22;2271;49.464;11.070;2023-02-28T13:19:41;7.10;99.90
4518;DHT22;2271;49.464;11.070;2023-02-28T13:25:01;6.90;99.90
4518;DHT22;2271;49.464;11.070;2023-02-28T13:27:37;6.90;99.90
4518;DHT22;2271;49.464;11.070;2023-02-28T13:33:37;6.60;99.90
4518;DHT22;2271;49.464;11.070;2023-02-28T13:38:49;6.90;99.90
4518;DHT22;2271;49.464;11.070;2023-02-28T13:44:14;6.90;99.90
4518;DHT22;2271;49.464;11.070;2023-02-28T13:55:00;7.20;99.90
4518;DHT22;2271;49.464;11.070;2023-02-28T14:00:35;6.60;99.90
4518;DHT22;2271;49.464;11.070;2023-02-28T14:06:26;6.70;99.90
4518;DHT22;2271;49.464;11.070;2023-02-28T14:11:29;7.00;99.90
4518;DHT22;2271;49.464;11.070;2023-02-28T14:13:55;7.00;99.90
4518;DHT22;2271;49.464;11.070;2023-02-28T14:16:23;7.00;99.90
4518;DHT22;2271;49.464;11.070;2023-02-28T14:19:03;6.80;99.90
4518;DHT22;2271;49.464;11.070;2023-02-28T14:21:36;6.70;99.90
4518;DHT22;2271;49.464;11.070;2023-02-28T14:37:48;7.20;99.90
4518;DHT22;2271;49.464;11.070;2023-02-28T14:42:57;6.60;99.90
4518;DHT22;2271;49.464;11.070;2023-02-28T14:45:23;6.60;99.90
4518;DHT22;2271;49.464;11.070;2023-02-28T14:47:50;6.60;99.90
4518;DHT22;2271;49.464;11.070;2023-02-28T14:50:24;6.70;99.90
4518;DHT22;2271;49.464;11.070;2023-02-28T14:52:53;6.90;99.90
4518;DHT22;2271;49.464;11.070;2023-02-28T14:55:25;6.90;99.90
4518;DHT22;2271;49.464;11.070;2023-02-28T14:57:57;6.90;99.90
4518;DHT22;2271;49.464;11.070;2023-02-28T15:00:29;7.00;99.90
4518;DHT22;2271;49.464;11.070;2023-02-28T15:02:56;6.90;99.90
4518;DHT22;2271;49.464;11.070;2023-02-28T15:05:27;6.80;99.90
4518;DHT22;2271;49.464;11.070;2023-02-28T15:10:36;6.60;99.90
4518;DHT22;2271;49.464;11.070;2023-02-28T15:13:07;6.50;99.90
4518;DHT22;2271;49.464;11.070;2023-02-28T15:15:59;6.50;99.90
4518;DHT22;2271;49.464;11.070;2023-02-28T15:21:07;6.40;99.90
4518;DHT22;2271;49.464;11.070;2023-02-28T15:23:35;6.30;99.90
4518;DHT22;2271;49.464;11.070;2023-02-28T15:26:02;6.30;99.90
4518;DHT22;2271;49.464;11.070;2023-02-28T15:28:28;6.10;99.90
4518;DHT22;2271;49.464;11.070;2023-02-28T15:30:59;6.10;99.90
4518;DHT22;2271;49.464;11.070;2023-02-28T15:33:30;6.00;99.90
4518;DHT22;2271;49.464;11.070;2023-02-28T15:38:36;6.00;99.90
4518;DHT22;2271;49.464;11.070;2023-02-28T15:41:02;5.90;99.90
4518;DHT22;2271;49.464;11.070;2023-02-28T15:43:37;5.90;99.90
4518;DHT22;2271;49.464;11.070;2023-02-28T15:46:07;5.90;99.90
4518;DHT22;2271;49.464;11.070;2023-02-28T15:48:42;5.90;99.90
4518;DHT22;2271;49.464;11.070;2023-02-28T15:51:16;5.80;99.90
4518;DHT22;2271;49.464;11.070;2023-02-28T15:53:56;5.70;99.90
4518;DHT22;2271;49.464;11.070;2023-02-28T15:56:35;5.90;99.90
4518;DHT22;2271;49.464;11.070;2023-02-28T15:59:05;5.90;99.90
4518;DHT22;2271;49.464;11.070;2023-02-28T16:01:34;5.90;99.90
4518;DHT22;2271;49.464;11.070;2023-02-28T16:04:18;5.80;99.90
4518;DHT22;2271;49.464;11.070;2023-02-28T16:07:00;5.80;99.90
4518;DHT22;2271;49.464;11.070;2023-02-28T16:09:26;5.70;99.90
4518;DHT22;2271;49.464;11.070;2023-02-28T16:11:55;5.60;99.90
4518;DHT22;2271;49.464;11.070;2023-02-28T16:14:25;5.60;99.90
4518;DHT22;2271;49.464;11.070;2023-02-28T16:16:55;5.50;99.90
4518;DHT22;2271;49.464;11.070;2023-02-28T16:19:22;5.50;99.90
4518;DHT22;2271;49.464;11.070;2023-02-28T16:21:48;5.40;99.90
4518;DHT22;2271;49.464;11.070;2023-02-28T16:24:14;5.40;99.90
4518;DHT22;2271;49.464;11.070;2023-02-28T16:26:46;5.40;99.90
4518;DHT22;2271;49.464;11.070;2023-02-28T16:29:34;5.40;99.90
4518;DHT22;2271;49.464;11.070;2023-02-28T16:32:00;5.40;99.90
4518;DHT22;2271;49.464;11.070;2023-02-28T16:34:27;5.40;99.90
4518;DHT22;2271;49.464;11.070;2023-02-28T16:36:52;5.40;99.90
4518;DHT22;2271;49.464;11.070;2023-02-28T16:39:18;5.30;99.90
4518;DHT22;2271;49.464;11.070;2023-02-28T16:41:48;5.40;99.90
4518;DHT22;2271;49.464;11.070;2023-02-28T16:44:27;5.40;99.90
4518;DHT22;2271;49.464;11.070;2023-02-28T16:46:53;5.20;99.90
4518;DHT22;2271;49.464;11.070;2023-02-28T16:49:19;5.30;99.90
4518;DHT22;2271;49.464;11.070;2023-02-28T16:51:46;5.20;99.90
4518;DHT22;2271;49.464;11.070;2023-02-28T16:54:11;5.20;99.90
4518;DHT22;2271;49.464;11.070;2023-02-28T16:56:39;5.20;99.90
4518;DHT22;2271;49.464;11.070;2023-02-28T16:59:07;5.20;99.90
4518;DHT22;2271;49.464;11.070;2023-02-28T17:01:33;5.30;99.90
4518;DHT22;2271;49.464;11.070;2023-02-28T17:03:59;5.20;99.90
4518;DHT22;2271;49.464;11.070;2023-02-28T17:06:26;5.20;99.90
4518;DHT22;2271;49.464;11.070;2023-02-28T17:08:56;5.10;99.90
4518;DHT22;2271;49.464;11.070;2023-02-28T17:11:23;5.00;99.90
4518;DHT22;2271;49.464;11.070;2023-02-28T17:13:49;5.10;99.90
4518;DHT22;2271;49.464;11.070;2023-02-28T17:16:22;5.10;99.90
4518;DHT22;2271;49.464;11.070;2023-02-28T17:18:50;5.10;99.90
4518;DHT22;2271;49.464;11.070;2023-02-28T17:21:16;5.10;99.90
4518;DHT22;2271;49.464;11.070;2023-02-28T17:23:43;4.90;99.90
4518;DHT22;2271;49.464;11.070;2023-02-28T17:26:15;4.80;99.90
4518;DHT22;2271;49.464;11.070;2023-02-28T17:28:43;4.80;99.90
4518;DHT22;2271;49.464;11.070;2023-02-28T17:31:09;4.70;99.90
4518;DHT22;2271;49.464;11.070;2023-02-28T17:33:35;4.80;99.90
4518;DHT22;2271;49.464;11.070;2023-02-28T17:36:00;4.80;99.90
4518;DHT22;2271;49.464;11.070;2023-02-28T17:38:26;4.80;99.90
4518;DHT22;2271;49.464;11.070;2023-02-28T17:40:52;4.90;99.90
4518;DHT22;2271;49.464;11.070;2023-02-28T17:43:23;4.90;99.90
4518;DHT22;2271;49.464;11.070;2023-02-28T17:45:48;5.00;99.90
4518;DHT22;2271;49.464;11.070;2023-02-28T17:48:14;4.90;99.90
4518;DHT22;2271;49.464;11.070;2023-02-28T17:50:40;4.90;99.90
4518;DHT22;2271;49.464;11.070;2023-02-28T17:53:06;4.90;99.90
4518;DHT22;2271;49.464;11.070;2023-02-28T17:55:31;4.90;99.90
4518;DHT22;2271;49.464;11.070;2023-02-28T17:57:59;4.90;99.90
4518;DHT22;2271;49.464;11.070;2023-02-28T18:00:24;4.80;99.90
4518;DHT22;2271;49.464;11.070;2023-02-28T18:02:50;4.80;99.90
4518;DHT22;2271;49.464;11.070;2023-02-28T18:05:16;4.80;99.90
4518;DHT22;2271;49.464;11.070;2023-02-28T18:07:42;4.80;99.90
4518;DHT22;2271;49.464;11.070;2023-02-28T18:10:19;4.80;99.90
4518;DHT22;2271;49.464;11.070;2023-02-28T18:12:49;4.70;99.90
4518;DHT22;2271;49.464;11.070;2023-02-28T18:15:18;4.60;99.90
4518;DHT22;2271;49.464;11.070;2023-02-28T18:17:45;4.70;99.90
4518;DHT22;2271;49.464;11.070;2023-02-28T18:20:11;4.70;99.90
4518;DHT22;2271;49.464;11.070;2023-02-28T18:22:39;4.60;99.90
4518;DHT22;2271;49.464;11.070;2023-02-28T18:25:07;4.50;99.90
4518;DHT22;2271;49.464;11.070;2023-02-28T18:27:34;4.50;99.90
4518;DHT22;2271;49.464;11.070;2023-02-28T18:30:01;4.50;99.90
4518;DHT22;2271;49.464;11.070;2023-02-28T18:32:28;4.50;99.90
4518;DHT22;2271;49.464;11.070;2023-02-28T18:34:54;4.50;99.90
4518;DHT22;2271;49.464;11.070;2023-02-28T18:37:20;4.50;99.90
4518;DHT22;2271;49.464;11.070;2023-02-28T18:39:46;4.60;99.90
4518;DHT22;2271;49.464;11.070;2023-02-28T18:42:12;4.60;99.90
4518;DHT22;2271;49.464;11.070;2023-02-28T18:44:37;4.50;99.90
4518;DHT22;2271;49.464;11.070;2023-02-28T18:47:03;4.50;99.90
4518;DHT22;2271;49.464;11.070;2023-02-28T18:49:30;4.50;99.90
4518;DHT22;2271;49.464;11.070;2023-02-28T18:51:58;4.60;99.90
4518;DHT22;2271;49.464;11.070;2023-02-28T18:54:24;4.40;99.90
4518;DHT22;2271;49.464;11.070;2023-02-28T18:56:49;4.40;99.90